createdAt,value
2019-02-12T00:01:54.926Z,5.67
2019-02-12T00:04:23.591Z,2.05
2019-02-12T00:06:52.174Z,2.90
2019-02-12T00:09:20.799Z,3.50
2019-02-12T00:11:49.400Z,2.17
2019-02-12T00:14:18.012Z,2.60
2019-02-12T00:16:46.579Z,2.10
2019-02-12T00:19:15.176Z,1.90
2019-02-12T00:21:43.834Z,2.00
2019-02-12T00:24:12.468Z,1.82
2019-02-12T00:26:41.050Z,2.10
2019-02-12T00:29:09.761Z,2.70
2019-02-12T00:31:38.348Z,2.83
2019-02-12T00:34:06.964Z,2.60
2019-02-12T00:36:35.557Z,1.55
2019-02-12T00:39:05.032Z,2.33
2019-02-12T00:41:33.622Z,1.72
2019-02-12T00:44:02.233Z,1.75
2019-02-12T00:46:30.829Z,2.12
2019-02-12T00:48:59.667Z,1.30
2019-02-12T00:51:28.245Z,1.70
2019-02-12T00:53:56.862Z,3.05
2019-02-12T00:56:25.447Z,2.50
2019-02-12T00:58:54.057Z,2.75
2019-02-12T01:01:22.636Z,2.35
2019-02-12T01:03:51.279Z,1.85
2019-02-12T01:06:19.833Z,1.72
2019-02-12T01:08:48.469Z,2.87
2019-02-12T01:11:17.072Z,1.82
2019-02-12T01:13:45.669Z,1.90
2019-02-12T01:16:14.365Z,1.60
2019-02-12T01:18:42.966Z,2.40
2019-02-12T01:21:11.558Z,2.02
2019-02-12T01:23:40.157Z,1.85
2019-02-12T01:26:08.758Z,2.10
2019-02-12T01:28:37.347Z,2.00
2019-02-12T01:31:05.961Z,4.55
2019-02-12T01:33:34.544Z,3.25
2019-02-12T01:36:03.155Z,3.87
2019-02-12T01:38:31.742Z,4.22
2019-02-12T01:41:00.352Z,3.37
2019-02-12T01:43:28.933Z,4.70
2019-02-12T01:45:57.532Z,4.22
2019-02-12T01:48:26.117Z,4.00
2019-02-12T01:50:54.713Z,4.92
2019-02-12T01:53:23.354Z,4.70
2019-02-12T01:55:51.906Z,5.25
2019-02-12T01:58:20.487Z,5.00
2019-02-12T02:00:49.087Z,5.17
2019-02-12T02:03:17.668Z,5.12
2019-02-12T02:05:46.279Z,6.28
2019-02-12T02:08:14.890Z,6.95
2019-02-12T02:10:43.508Z,5.75
2019-02-12T02:13:12.138Z,5.70
2019-02-12T02:15:40.797Z,5.62
2019-02-12T02:18:09.413Z,5.37
2019-02-12T02:20:37.993Z,4.62
2019-02-12T02:23:06.665Z,5.83
2019-02-12T02:25:35.245Z,5.75
2019-02-12T02:28:03.845Z,6.20
2019-02-12T02:30:32.489Z,6.62
2019-02-12T02:33:01.071Z,5.47
2019-02-12T02:35:29.653Z,6.37
2019-02-12T02:37:58.256Z,5.05
2019-02-12T02:40:26.848Z,5.22
2019-02-12T02:42:55.442Z,5.58
2019-02-12T02:45:24.025Z,4.20
2019-02-12T02:47:52.631Z,5.35
2019-02-12T02:50:21.254Z,4.72
2019-02-12T02:52:49.832Z,6.70
2019-02-12T02:55:18.445Z,4.55
2019-02-12T02:57:47.035Z,5.20
2019-02-12T03:00:15.834Z,4.60
2019-02-12T03:02:44.425Z,5.40
2019-02-12T03:05:13.048Z,3.80
2019-02-12T03:07:41.729Z,4.80
2019-02-12T03:10:10.538Z,5.10
2019-02-12T03:12:39.147Z,4.45
2019-02-12T03:15:08.674Z,3.92
2019-02-12T03:17:37.272Z,4.17
2019-02-12T03:20:06.614Z,5.20
2019-02-12T03:22:35.209Z,4.50
2019-02-12T03:25:03.957Z,3.60
2019-02-12T03:27:32.547Z,3.90
2019-02-12T03:30:01.130Z,4.50
2019-02-12T03:32:29.772Z,3.70
2019-02-12T03:34:58.363Z,4.50
2019-02-12T03:37:26.962Z,4.25
2019-02-12T03:39:55.545Z,4.10
2019-02-12T03:42:24.136Z,3.47
2019-02-12T03:44:52.958Z,3.37
2019-02-12T03:47:21.639Z,3.85
2019-02-12T03:49:50.238Z,3.85
2019-02-12T03:52:19.513Z,4.10
2019-02-12T03:54:48.623Z,4.65
2019-02-12T03:57:17.229Z,4.83
2019-02-12T03:59:45.885Z,3.98
2019-02-12T04:02:14.562Z,5.00
2019-02-12T04:04:43.234Z,4.40
2019-02-12T04:07:11.840Z,5.30
2019-02-12T04:09:40.445Z,4.80
2019-02-12T04:12:09.124Z,3.98
2019-02-12T04:14:37.992Z,4.95
2019-02-12T04:17:06.612Z,5.00
2019-02-12T04:19:35.194Z,4.53
2019-02-12T04:22:03.794Z,5.08
2019-02-12T04:24:32.403Z,4.55
2019-02-12T04:27:00.999Z,4.30
2019-02-12T04:29:29.616Z,5.00
2019-02-12T04:31:58.300Z,4.80
2019-02-12T04:34:26.888Z,5.22
2019-02-12T04:36:55.463Z,3.42
2019-02-12T04:39:24.080Z,4.70
2019-02-12T04:41:52.682Z,5.12
2019-02-12T04:44:21.271Z,5.37
2019-02-12T04:46:49.855Z,3.05
2019-02-12T04:49:19.765Z,3.80
2019-02-12T04:51:48.335Z,3.70
2019-02-12T04:54:16.954Z,4.28
2019-02-12T04:56:45.625Z,2.92
2019-02-12T04:59:14.251Z,3.55
2019-02-12T05:01:42.888Z,3.70
2019-02-12T05:04:11.524Z,5.62
2019-02-12T05:06:40.386Z,4.65
2019-02-12T05:09:16.927Z,6.12
2019-02-12T05:11:54.582Z,5.08
2019-02-12T05:14:23.303Z,4.33
2019-02-12T05:16:51.902Z,4.60
2019-02-12T05:19:20.513Z,5.35
2019-02-12T05:21:49.102Z,4.40
2019-02-12T05:24:17.961Z,4.97
2019-02-12T05:26:46.537Z,3.95
2019-02-12T05:29:15.137Z,4.45
2019-02-12T05:31:43.717Z,4.30
2019-02-12T05:34:13.861Z,4.25
2019-02-12T05:36:42.437Z,3.70
2019-02-12T05:39:11.035Z,3.80
2019-02-12T05:41:41.513Z,4.47
2019-02-12T05:44:10.074Z,4.00
2019-02-12T05:46:38.651Z,4.90
2019-02-12T05:49:07.246Z,4.70
2019-02-12T05:51:35.863Z,4.00
2019-02-12T05:54:04.457Z,5.37
2019-02-12T05:56:33.094Z,4.83
2019-02-12T05:59:01.707Z,3.25
2019-02-12T06:01:30.301Z,3.85
2019-02-12T06:03:58.907Z,4.30
2019-02-12T06:06:27.509Z,3.45
2019-02-12T06:08:56.094Z,4.10
2019-02-12T06:11:24.715Z,4.30
2019-02-12T06:13:53.305Z,3.92
2019-02-12T06:16:21.985Z,4.40
2019-02-12T06:18:50.576Z,4.05
2019-02-12T06:21:19.196Z,3.30
2019-02-12T06:23:47.777Z,3.50
2019-02-12T06:26:16.394Z,3.67
2019-02-12T06:28:44.995Z,3.85
2019-02-12T06:31:13.622Z,3.10
2019-02-12T06:33:42.271Z,4.40
2019-02-12T06:36:10.894Z,3.47
2019-02-12T06:38:39.491Z,3.52
2019-02-12T06:41:08.113Z,4.50
2019-02-12T06:43:36.758Z,3.72
2019-02-12T06:46:05.358Z,6.42
2019-02-12T06:48:33.956Z,4.20
2019-02-12T06:51:02.578Z,3.17
2019-02-12T06:53:31.199Z,4.17
2019-02-12T06:55:59.890Z,5.60
2019-02-12T06:58:28.519Z,3.05
2019-02-12T07:00:57.113Z,4.40
2019-02-12T07:03:36.229Z,3.60
2019-02-12T07:06:08.656Z,3.30
2019-02-12T07:09:05.438Z,2.87
2019-02-12T07:12:15.088Z,4.90
2019-02-12T07:14:57.300Z,3.62
2019-02-12T07:17:53.518Z,3.80
2019-02-12T07:20:33.646Z,1.37
2019-02-12T07:23:33.783Z,0.00
2019-02-12T07:26:42.732Z,6.80
2019-02-12T07:29:48.661Z,4.55
2019-02-12T07:33:13.287Z,4.15
2019-02-12T07:36:08.653Z,3.75
2019-02-12T07:39:07.865Z,3.75
2019-02-12T07:41:54.237Z,11.12
2019-02-12T07:45:08.912Z,3.85
2019-02-12T07:48:09.238Z,4.37
2019-02-12T07:50:51.116Z,3.55
2019-02-12T07:53:49.504Z,5.08
2019-02-12T07:56:42.200Z,3.27
2019-02-12T07:59:32.456Z,3.15
2019-02-12T08:02:47.185Z,3.87
2019-02-12T08:05:46.034Z,3.58
2019-02-12T08:09:20.189Z,6.28
2019-02-12T08:12:32.884Z,8.75
2019-02-12T08:15:35.933Z,4.25
2019-02-12T08:18:23.612Z,2.80
2019-02-12T08:21:36.900Z,3.15
2019-02-12T08:24:49.096Z,7.65
2019-02-12T08:27:42.673Z,3.95
2019-02-12T08:30:45.348Z,17.50
2019-02-12T08:33:45.026Z,3.70
2019-02-12T08:36:26.094Z,3.45
2019-02-12T08:39:22.426Z,1.65
2019-02-12T08:42:13.801Z,7.55
2019-02-12T08:45:03.918Z,3.92
2019-02-12T08:47:57.380Z,8.05
2019-02-12T08:50:46.160Z,10.55
2019-02-12T08:54:08.106Z,3.72
2019-02-12T08:57:21.400Z,12.63
2019-02-12T09:00:26.999Z,4.03
2019-02-12T09:03:39.769Z,3.10
2019-02-12T09:06:35.747Z,8.50
2019-02-12T09:09:29.490Z,4.75
2019-02-12T09:12:28.875Z,16.55
2019-02-12T09:15:45.474Z,3.80
2019-02-12T09:18:40.628Z,3.95
2019-02-12T09:21:53.036Z,3.80
2019-02-12T09:24:28.640Z,3.73
2019-02-12T09:27:26.562Z,3.93
2019-02-12T09:30:17.034Z,4.10
2019-02-12T09:33:23.004Z,4.10
2019-02-12T09:36:17.436Z,3.07
2019-02-12T09:39:28.803Z,3.83
2019-02-12T09:42:28.209Z,3.80
2019-02-12T09:45:28.597Z,4.20
2019-02-12T09:48:10.721Z,4.40
2019-02-12T09:51:07.570Z,3.43
2019-02-12T09:54:23.996Z,3.27
2019-02-12T09:57:11.558Z,3.57
2019-02-12T09:59:59.719Z,10.23
2019-02-12T10:03:03.975Z,6.40
2019-02-12T10:06:21.535Z,14.73
2019-02-12T10:09:10.182Z,9.03
2019-02-12T10:12:14.760Z,3.43
2019-02-12T10:15:21.494Z,3.23
2019-02-12T10:18:33.090Z,3.70
2019-02-12T10:21:44.445Z,3.57
2019-02-12T10:24:46.874Z,2.77
2019-02-12T10:27:45.388Z,3.60
2019-02-12T10:30:27.718Z,3.80
2019-02-12T10:32:56.318Z,3.07
2019-02-12T10:35:24.909Z,3.20
2019-02-12T10:37:53.585Z,3.83
2019-02-12T10:40:22.271Z,3.23
2019-02-12T10:42:50.885Z,3.47
2019-02-12T10:45:19.461Z,3.50
2019-02-12T10:47:48.055Z,3.53
2019-02-12T10:50:16.631Z,3.50
2019-02-12T10:52:45.216Z,3.17
2019-02-12T10:55:13.828Z,2.20
2019-02-12T10:57:42.412Z,2.40
2019-02-12T11:00:12.660Z,2.50
2019-02-12T11:02:41.250Z,3.20
2019-02-12T11:05:10.099Z,2.57
2019-02-12T11:07:38.678Z,2.20
2019-02-12T11:10:08.108Z,3.50
2019-02-12T11:12:36.770Z,3.50
2019-02-12T11:15:05.730Z,3.50
2019-02-12T11:17:34.332Z,3.27
2019-02-12T11:20:02.953Z,2.70
2019-02-12T11:22:31.525Z,2.50
2019-02-12T11:25:00.256Z,3.20
2019-02-12T11:27:28.834Z,2.73
2019-02-12T11:29:57.439Z,2.83
2019-02-12T11:32:26.012Z,3.20
2019-02-12T11:34:54.630Z,3.47
2019-02-12T11:37:23.183Z,4.13
2019-02-12T11:39:51.772Z,2.77
2019-02-12T11:42:20.355Z,3.00
2019-02-12T11:44:48.973Z,3.13
2019-02-12T11:47:17.548Z,3.17
2019-02-12T11:49:46.153Z,3.00
2019-02-12T11:52:14.746Z,3.57
2019-02-12T11:54:43.910Z,3.30
2019-02-12T11:57:12.770Z,3.03
2019-02-12T11:59:41.379Z,3.37
2019-02-12T12:02:09.981Z,3.10
2019-02-12T12:04:38.561Z,3.53
2019-02-12T12:07:07.155Z,3.70
2019-02-12T12:09:35.749Z,3.13
2019-02-12T12:12:04.435Z,4.33
2019-02-12T12:14:33.108Z,4.37
2019-02-12T12:17:01.733Z,3.93
2019-02-12T12:19:30.339Z,3.80
2019-02-12T12:21:58.977Z,2.97
2019-02-12T12:24:27.562Z,7.03
2019-02-12T12:26:56.171Z,4.03
2019-02-12T12:29:25.095Z,3.50
2019-02-12T12:31:53.775Z,3.90
2019-02-12T12:34:22.362Z,8.13
2019-02-12T12:36:51.017Z,14.17
2019-02-12T12:39:19.749Z,3.27
2019-02-12T12:41:48.361Z,3.43
2019-02-12T12:44:16.997Z,3.50
2019-02-12T12:46:45.633Z,4.33
2019-02-12T12:49:14.305Z,4.30
2019-02-12T12:51:42.973Z,3.40
2019-02-12T12:54:11.684Z,4.73
2019-02-12T12:56:40.321Z,4.43
2019-02-12T12:59:09.167Z,4.30
2019-02-12T13:01:37.769Z,4.93
2019-02-12T13:04:06.384Z,4.43
2019-02-12T13:06:35.025Z,3.80
2019-02-12T13:09:05.398Z,4.80
2019-02-12T13:11:34.162Z,4.40
2019-02-12T13:14:02.917Z,4.20
2019-02-12T13:16:31.496Z,4.37
2019-02-12T13:19:00.127Z,4.00
2019-02-12T13:21:28.753Z,5.00
2019-02-12T13:23:58.528Z,4.80
2019-02-12T13:26:27.480Z,4.30
2019-02-12T13:28:56.098Z,4.23
2019-02-12T13:31:24.830Z,4.27
2019-02-12T13:33:53.436Z,4.97
2019-02-12T13:36:22.196Z,5.30
2019-02-12T13:38:50.821Z,4.87
2019-02-12T13:41:19.603Z,7.00
2019-02-12T13:43:48.257Z,5.60
2019-02-12T13:46:17.359Z,5.83
2019-02-12T13:48:46.077Z,6.60
2019-02-12T13:51:14.698Z,5.87
2019-02-12T13:53:43.335Z,5.40
2019-02-12T13:56:12.243Z,6.73
2019-02-12T13:58:40.792Z,7.90
2019-02-12T14:01:09.473Z,6.60
2019-02-12T14:03:39.873Z,7.80
2019-02-12T14:06:08.531Z,6.80
2019-02-12T14:08:37.267Z,8.30
2019-02-12T14:11:05.911Z,7.30
2019-02-12T14:13:34.602Z,8.03
2019-02-12T14:16:03.775Z,8.50
2019-02-12T14:18:32.595Z,7.90
2019-02-12T14:21:01.210Z,8.10
2019-02-12T14:23:30.132Z,8.30
2019-02-12T14:25:58.902Z,8.30
2019-02-12T14:28:28.167Z,7.80
2019-02-12T14:30:56.970Z,7.27
2019-02-12T14:33:25.631Z,9.53
2019-02-12T14:35:54.637Z,9.20
2019-02-12T14:38:24.046Z,9.27
2019-02-12T14:40:52.763Z,9.10
2019-02-12T14:43:25.706Z,8.27
2019-02-12T14:45:54.943Z,8.47
2019-02-12T14:48:23.999Z,8.47
2019-02-12T14:50:53.177Z,9.40
2019-02-12T14:53:21.958Z,9.20
2019-02-12T14:55:50.600Z,10.00
2019-02-12T14:58:19.688Z,9.90
2019-02-12T15:00:48.437Z,9.50
2019-02-12T15:03:19.359Z,9.57
2019-02-12T15:05:47.882Z,9.83
2019-02-12T15:08:17.183Z,7.97
2019-02-12T15:10:45.784Z,7.80
2019-02-12T15:13:14.537Z,8.73
2019-02-12T15:15:44.657Z,9.00
2019-02-12T15:18:13.273Z,8.80
2019-02-12T15:20:41.953Z,9.13
2019-02-12T15:23:10.532Z,9.77
2019-02-12T15:25:42.035Z,8.67
2019-02-12T15:28:09.672Z,8.13
2019-02-12T15:30:38.253Z,7.63
2019-02-12T15:33:06.865Z,7.70
2019-02-12T15:35:35.465Z,9.17
2019-02-12T15:38:04.355Z,8.13
2019-02-12T15:40:32.927Z,8.70
2019-02-12T15:43:01.514Z,8.27
2019-02-12T15:45:30.118Z,10.10
2019-02-12T15:47:58.716Z,9.80
2019-02-12T15:50:27.315Z,8.90
2019-02-12T15:52:55.940Z,12.60
2019-02-12T15:55:24.530Z,11.30
2019-02-12T15:57:53.284Z,9.03
2019-02-12T16:00:21.878Z,9.37
2019-02-12T16:02:50.482Z,8.90
2019-02-12T16:05:19.068Z,9.43
2019-02-12T16:07:47.877Z,9.83
2019-02-12T16:10:17.784Z,9.07
2019-02-12T16:12:48.934Z,8.90
2019-02-12T16:15:21.151Z,10.43
2019-02-12T16:17:48.044Z,10.60
2019-02-12T16:20:16.625Z,10.13
2019-02-12T16:22:45.207Z,9.20
2019-02-12T16:25:15.377Z,12.70
2019-02-12T16:27:44.169Z,13.10
2019-02-12T16:30:14.819Z,12.60
2019-02-12T16:32:43.425Z,11.60
2019-02-12T16:35:13.214Z,8.40
2019-02-12T16:37:41.826Z,10.70
2019-02-12T16:40:11.325Z,10.93
2019-02-12T16:42:39.987Z,13.57
2019-02-12T16:45:11.667Z,11.77
2019-02-12T16:47:40.270Z,11.20
2019-02-12T16:50:08.956Z,10.07
2019-02-12T16:52:37.553Z,11.03
2019-02-12T16:55:07.032Z,8.90
2019-02-12T16:57:36.053Z,9.27
2019-02-12T17:00:07.572Z,11.80
2019-02-12T17:02:36.493Z,11.77
2019-02-12T17:05:06.121Z,10.40
2019-02-12T17:07:34.935Z,11.23
2019-02-12T17:10:04.082Z,10.30
2019-02-12T17:12:32.996Z,10.73
2019-02-12T17:15:01.697Z,15.63
2019-02-12T17:17:30.483Z,11.00
2019-02-12T17:19:59.190Z,13.10
2019-02-12T17:22:27.930Z,12.53
2019-02-12T17:24:56.827Z,11.40
2019-02-12T17:27:25.623Z,11.50
2019-02-12T17:29:54.181Z,12.00
2019-02-12T17:32:23.117Z,11.60
2019-02-12T17:34:51.733Z,10.90
2019-02-12T17:37:20.385Z,10.53
2019-02-12T17:39:48.996Z,11.50
2019-02-12T17:42:17.614Z,13.47
2019-02-12T17:44:46.215Z,14.17
2019-02-12T17:47:14.872Z,14.10
2019-02-12T17:49:43.555Z,15.23
2019-02-12T17:52:12.171Z,15.43
2019-02-12T17:54:40.792Z,11.97
2019-02-12T17:57:09.393Z,17.57
2019-02-12T17:59:38.087Z,18.40
2019-02-12T18:02:06.846Z,14.90
2019-02-12T18:04:35.638Z,15.10
2019-02-12T18:07:04.216Z,16.65
2019-02-12T18:09:32.854Z,16.75
2019-02-12T18:12:01.461Z,16.45
2019-02-12T18:14:30.135Z,16.93
2019-02-12T18:16:58.792Z,15.95
2019-02-12T18:19:27.459Z,15.53
2019-02-12T18:21:56.375Z,17.30
2019-02-12T18:24:24.967Z,17.35
2019-02-12T18:26:53.650Z,18.55
2019-02-12T18:29:23.261Z,16.57
2019-02-12T18:31:51.855Z,17.77
2019-02-12T18:34:20.460Z,16.00
2019-02-12T18:36:49.114Z,18.17
2019-02-12T18:39:17.711Z,17.80
2019-02-12T18:41:46.299Z,19.52
2019-02-12T18:44:14.905Z,18.23
2019-02-12T18:46:43.518Z,17.30
2019-02-12T18:49:12.130Z,16.42
2019-02-12T18:51:40.741Z,15.95
2019-02-12T18:54:09.402Z,15.70
2019-02-12T18:56:41.731Z,16.35
2019-02-12T18:59:08.340Z,16.62
2019-02-12T19:01:36.962Z,17.30
2019-02-12T19:04:05.540Z,16.85
2019-02-12T19:06:34.164Z,20.95
2019-02-12T19:09:03.088Z,17.07
2019-02-12T19:11:32.038Z,18.45
2019-02-12T19:14:00.628Z,18.30
2019-02-12T19:16:29.269Z,18.65
2019-02-12T19:18:57.849Z,18.75
2019-02-12T19:21:26.729Z,23.60
2019-02-12T19:23:55.452Z,18.35
2019-02-12T19:26:24.065Z,19.32
2019-02-12T19:28:52.654Z,19.65
2019-02-12T19:31:23.069Z,18.37
2019-02-12T19:33:51.656Z,18.17
2019-02-12T19:36:20.267Z,17.12
2019-02-12T19:38:49.728Z,16.02
2019-02-12T19:41:19.897Z,18.23
2019-02-12T19:43:48.497Z,15.98
2019-02-12T19:46:17.112Z,17.65
2019-02-12T19:48:45.712Z,16.70
2019-02-12T19:51:15.426Z,20.08
2019-02-12T19:53:44.027Z,18.73
2019-02-12T19:56:12.685Z,18.00
2019-02-12T19:58:41.290Z,17.25
2019-02-12T20:01:10.311Z,22.05
2019-02-12T20:03:38.990Z,15.68
2019-02-12T20:06:07.853Z,19.25
2019-02-12T20:08:36.630Z,19.12
2019-02-12T20:11:05.802Z,18.70
2019-02-12T20:13:34.404Z,17.37
2019-02-12T20:16:03.121Z,17.02
2019-02-12T20:18:31.696Z,15.93
2019-02-12T20:21:00.520Z,19.60
2019-02-12T20:23:29.187Z,17.12
2019-02-12T20:25:57.793Z,16.00
2019-02-12T20:28:26.408Z,15.32
2019-02-12T20:30:55.062Z,15.40
2019-02-12T20:33:23.762Z,15.95
2019-02-12T20:35:52.503Z,18.67
2019-02-12T20:38:22.034Z,18.30
2019-02-12T20:40:50.646Z,17.85
2019-02-12T20:43:19.254Z,19.00
2019-02-12T20:45:47.932Z,18.57
2019-02-12T20:48:16.640Z,18.62
2019-02-12T20:50:45.241Z,20.45
2019-02-12T20:53:13.941Z,19.60
2019-02-12T20:55:42.642Z,19.00
2019-02-12T20:58:11.278Z,17.62
2019-02-12T21:00:39.874Z,17.02
2019-02-12T21:03:08.485Z,16.75
2019-02-12T21:05:37.148Z,17.52
2019-02-12T21:08:05.780Z,16.35
2019-02-12T21:10:34.425Z,15.85
2019-02-12T21:13:03.049Z,16.15
2019-02-12T21:15:31.779Z,16.73
2019-02-12T21:18:00.405Z,18.42
2019-02-12T21:20:29.047Z,16.07
2019-02-12T21:22:57.656Z,16.57
2019-02-12T21:25:26.280Z,16.57
2019-02-12T21:27:55.116Z,14.78
2019-02-12T21:30:23.832Z,15.08
2019-02-12T21:32:52.455Z,16.32
2019-02-12T21:35:21.318Z,15.98
2019-02-12T21:37:50.010Z,13.88
2019-02-12T21:40:20.064Z,14.55
2019-02-12T21:42:49.484Z,14.83
2019-02-12T21:45:18.072Z,14.87
2019-02-12T21:47:46.715Z,15.98
2019-02-12T21:50:15.330Z,14.28
2019-02-12T21:52:43.978Z,32.00
2019-02-12T21:55:12.697Z,16.02
2019-02-12T21:57:41.419Z,31.87
2019-02-12T22:00:12.144Z,49.33
2019-02-12T22:02:40.732Z,275.43
2019-02-12T22:05:10.168Z,75.90
2019-02-12T22:07:38.783Z,69.20
2019-02-12T22:10:09.841Z,84.20
2019-02-12T22:12:38.464Z,182.97
2019-02-12T22:15:10.461Z,449.65
2019-02-12T22:17:39.225Z,272.48
2019-02-12T22:20:08.949Z,39.48
2019-02-12T22:22:37.581Z,69.53
2019-02-12T22:25:06.601Z,75.20
2019-02-12T22:27:40.452Z,45.10
2019-02-12T22:30:08.965Z,27.70
2019-02-12T22:32:37.601Z,16.75
2019-02-12T22:35:06.450Z,16.80
2019-02-12T22:37:35.070Z,16.42
2019-02-12T22:40:03.749Z,20.37
2019-02-12T22:42:32.355Z,26.80
2019-02-12T22:45:00.977Z,24.37
2019-02-12T22:47:29.623Z,22.75
2019-02-12T22:49:58.216Z,20.68
2019-02-12T22:52:26.807Z,25.95
2019-02-12T22:54:55.441Z,19.10
2019-02-12T22:57:24.101Z,21.02
2019-02-12T22:59:52.688Z,24.65
2019-02-12T23:02:21.325Z,25.27
2019-02-12T23:04:49.910Z,20.80
2019-02-12T23:07:18.525Z,18.40
2019-02-12T23:09:47.125Z,20.80
2019-02-12T23:12:15.935Z,18.45
2019-02-12T23:14:44.533Z,17.15
2019-02-12T23:17:13.130Z,17.12
2019-02-12T23:19:41.746Z,17.85
2019-02-12T23:22:10.352Z,19.70
2019-02-12T23:24:38.965Z,18.27
2019-02-12T23:27:07.556Z,19.05
2019-02-12T23:29:36.176Z,18.82
2019-02-12T23:32:05.036Z,16.85
2019-02-12T23:34:33.641Z,17.90
2019-02-12T23:37:02.282Z,20.37
2019-02-12T23:39:30.897Z,19.35
2019-02-12T23:41:59.494Z,18.70
2019-02-12T23:44:28.126Z,18.70
2019-02-12T23:46:56.716Z,20.55
2019-02-12T23:49:25.324Z,17.77
2019-02-12T23:51:53.956Z,16.17
2019-02-12T23:54:22.587Z,18.50
2019-02-12T23:56:51.186Z,17.27
2019-02-12T23:59:19.798Z,16.52
